Data charts dashboard

Select data range

 
Start datetime:
 
 
End datetime:
 
 
Load data
 
Get the data!
Showing results from 2021/10/22 14:19 to 2021/10/22 20:19 (UTC)

Timestamp (UTC) Station Temperature Humidity Pressure Soundlevel Lightlevel
10/22/2021 8:16:52 PM stm32lrwan1_1 @ 868.1 Mhz 18 80 1023.4 507 20
10/22/2021 8:11:52 PM stm32lrwan1_1 @ 868.3 Mhz 18 80 1023.2 506 20
10/22/2021 8:06:52 PM stm32lrwan1_1 @ 868.3 Mhz 18 80 1023.3 508 21
10/22/2021 8:01:52 PM stm32lrwan1_1 @ 868.3 Mhz 18.1 80 1023.2 506 20
10/22/2021 7:56:52 PM stm32lrwan1_1 @ 868.3 Mhz 18 80 1023.1 506 20
10/22/2021 7:51:52 PM stm32lrwan1_1 @ 868.1 Mhz 18 81 1023.1 506 20
10/22/2021 7:46:52 PM stm32lrwan1_1 @ 868.1 Mhz 18 81 1023 507 21
10/22/2021 7:41:52 PM stm32lrwan1_1 @ 868.5 Mhz 18.1 81 1022.9 506 21
10/22/2021 7:36:52 PM stm32lrwan1_1 @ 868.3 Mhz 18 81 1022.9 508 37
10/22/2021 7:31:52 PM stm32lrwan1_1 @ 868.5 Mhz 18 81 1022.9 504 0
10/22/2021 7:26:52 PM stm32lrwan1_1 @ 868.3 Mhz 18.1 81 1022.8 506 0
10/22/2021 7:21:52 PM stm32lrwan1_1 @ 868.1 Mhz 18.1 81 1022.8 506 1
10/22/2021 7:16:52 PM stm32lrwan1_1 @ 868.3 Mhz 18 81 1022.7 506 1
10/22/2021 7:11:52 PM stm32lrwan1_1 @ 868.5 Mhz 18.1 81 1022.7 504 0
10/22/2021 7:06:52 PM stm32lrwan1_1 @ 868.3 Mhz 18 81 1022.6 505 0
10/22/2021 7:01:52 PM stm32lrwan1_1 @ 868.5 Mhz 18 81 1022.5 504 1
10/22/2021 6:56:52 PM stm32lrwan1_1 @ 868.1 Mhz 18.1 81 1022.5 506 1
10/22/2021 6:51:52 PM stm32lrwan1_1 @ 868.1 Mhz 18.1 81 1022.4 505 0
10/22/2021 6:46:52 PM stm32lrwan1_1 @ 868.1 Mhz 18.1 81 1022.3 503 1
10/22/2021 6:41:52 PM stm32lrwan1_1 @ 868.5 Mhz 18.1 81 1022.3 506 1
10/22/2021 6:36:52 PM stm32lrwan1_1 @ 868.5 Mhz 18.1 81 1022.3 504 1
10/22/2021 6:31:52 PM stm32lrwan1_1 @ 868.3 Mhz 18.1 80 1022.3 506 1
10/22/2021 6:26:52 PM stm32lrwan1_1 @ 868.5 Mhz 18.1 80 1022.3 504 1
10/22/2021 6:21:52 PM stm32lrwan1_1 @ 868.1 Mhz 18.1 80 1022.2 505 1
10/22/2021 6:16:52 PM stm32lrwan1_1 @ 868.3 Mhz 18.1 80 1022.3 504 1
10/22/2021 6:11:52 PM stm32lrwan1_1 @ 868.1 Mhz 18.1 80 1022.2 505 1
10/22/2021 6:06:51 PM stm32lrwan1_1 @ 868.3 Mhz 18.1 80 1022.2 503 0
10/22/2021 6:01:51 PM stm32lrwan1_1 @ 868.1 Mhz 18.2 80 1022.1 505 0
10/22/2021 5:56:52 PM stm32lrwan1_1 @ 868.3 Mhz 18.1 80 1022.1 504 1
10/22/2021 5:51:51 PM stm32lrwan1_1 @ 868.3 Mhz 18.2 80 1022.1 506 1
10/22/2021 5:46:51 PM stm32lrwan1_1 @ 868.3 Mhz 18.2 80 1021.9 505 1
10/22/2021 5:41:51 PM stm32lrwan1_1 @ 868.3 Mhz 18.2 80 1021.7 503 0
10/22/2021 5:36:51 PM stm32lrwan1_1 @ 868.3 Mhz 18.2 80 1021.7 505 2
10/22/2021 5:31:51 PM stm32lrwan1_1 @ 868.1 Mhz 18.2 80 1021.6 505 1
10/22/2021 5:26:51 PM stm32lrwan1_1 @ 868.3 Mhz 18.2 80 1021.4 503 1
10/22/2021 5:21:51 PM stm32lrwan1_1 @ 868.5 Mhz 18.2 80 1021.3 504 1
10/22/2021 5:16:51 PM stm32lrwan1_1 @ 868.1 Mhz 18.2 79 1021.2 503 1
10/22/2021 5:11:51 PM stm32lrwan1_1 @ 868.1 Mhz 18.2 79 1021.2 504 1
10/22/2021 5:06:51 PM stm32lrwan1_1 @ 868.1 Mhz 18.2 79 1021 504 3
10/22/2021 5:01:51 PM stm32lrwan1_1 @ 868.3 Mhz 18.2 79 1021 505 6
10/22/2021 4:56:51 PM stm32lrwan1_1 @ 868.1 Mhz 18.29 79 1021.1 505 13
10/22/2021 4:51:51 PM stm32lrwan1_1 @ 868.3 Mhz 18.29 78 1021 506 27
10/22/2021 4:46:51 PM stm32lrwan1_1 @ 868.5 Mhz 18.2 78 1021 508 64
10/22/2021 4:41:51 PM stm32lrwan1_1 @ 868.5 Mhz 18.2 78 1020.8 511 116
10/22/2021 4:36:51 PM stm32lrwan1_1 @ 868.1 Mhz 18.29 78 1020.8 509 141
10/22/2021 4:31:51 PM stm32lrwan1_1 @ 868.5 Mhz 18.29 78 1020.8 511 155
10/22/2021 4:26:51 PM stm32lrwan1_1 @ 868.5 Mhz 18.29 78 1020.6 517 249
10/22/2021 4:21:51 PM stm32lrwan1_1 @ 868.5 Mhz 18.29 77 1020.6 529 462
10/22/2021 4:16:51 PM stm32lrwan1_1 @ 868.3 Mhz 18.4 77 1020.4 536 587
10/22/2021 4:11:51 PM stm32lrwan1_1 @ 868.1 Mhz 18.5 77 1020.5 543 690
10/22/2021 4:06:51 PM stm32lrwan1_1 @ 868.1 Mhz 18.4 77 1020.4 548 789
10/22/2021 4:01:51 PM stm32lrwan1_1 @ 868.3 Mhz 18.29 77 1020.4 541 677
10/22/2021 3:56:51 PM stm32lrwan1_1 @ 868.1 Mhz 18.4 77 1020.2 558 861
10/22/2021 3:51:51 PM stm32lrwan1_1 @ 868.5 Mhz 18.4 77 1020.2 559 914
10/22/2021 3:46:51 PM stm32lrwan1_1 @ 868.5 Mhz 18.5 77 1020.1 577 1082
10/22/2021 3:41:51 PM stm32lrwan1_1 @ 868.3 Mhz 18.4 77 1020.1 601 1327
10/22/2021 3:36:51 PM stm32lrwan1_1 @ 868.3 Mhz 18.4 77 1020.1 582 1124
10/22/2021 3:31:51 PM stm32lrwan1_1 @ 868.1 Mhz 18.5 77 1020.1 570 1037
10/22/2021 3:26:51 PM stm32lrwan1_1 @ 868.1 Mhz 18.5 77 1020.1 552 834
10/22/2021 3:21:51 PM stm32lrwan1_1 @ 868.5 Mhz 18.5 77 1019.8 590 1227
10/22/2021 3:16:51 PM stm32lrwan1_1 @ 868.5 Mhz 18.6 77 1019.6 596 1314
10/22/2021 3:11:51 PM stm32lrwan1_1 @ 868.3 Mhz 18.6 77 1019.3 650 1800
10/22/2021 3:06:51 PM stm32lrwan1_1 @ 868.1 Mhz 18.6 77 1019.4 702 2223
10/22/2021 3:01:51 PM stm32lrwan1_1 @ 868.5 Mhz 18.7 76 1019.3 723 2401
10/22/2021 2:56:51 PM stm32lrwan1_1 @ 868.5 Mhz 18.7 76 1019.3 732 2496
10/22/2021 2:51:51 PM stm32lrwan1_1 @ 868.3 Mhz 18.7 76 1019.2 740 2578
10/22/2021 2:46:51 PM stm32lrwan1_1 @ 868.5 Mhz 18.7 76 1019.2 738 2536
10/22/2021 2:41:51 PM stm32lrwan1_1 @ 868.5 Mhz 18.7 76 1019.2 726 2466
10/22/2021 2:36:51 PM stm32lrwan1_1 @ 868.1 Mhz 18.7 76 1019.1 739 2576
10/22/2021 2:31:51 PM stm32lrwan1_1 @ 868.3 Mhz 18.7 76 1018.9 770 2870
10/22/2021 2:26:51 PM stm32lrwan1_1 @ 868.1 Mhz 18.7 76 1018.9 783 3018
10/22/2021 2:21:51 PM stm32lrwan1_1 @ 868.3 Mhz 18.7 76 1018.9 786 3049